sensor_id;sensor_type;location;lat;lon;timestamp;temperature;humidity
15615;DHT22;7907;51.368;6.730;2022-09-09T06:46:34;17.50;99.90
15615;DHT22;7907;51.368;6.730;2022-09-09T06:49:21;17.50;99.90
15615;DHT22;7907;51.368;6.730;2022-09-09T06:52:03;17.50;99.90
15615;DHT22;7907;51.368;6.730;2022-09-09T06:55:30;17.60;99.90
15615;DHT22;7907;51.368;6.730;2022-09-09T06:57:59;17.70;99.90
15615;DHT22;7907;51.368;6.730;2022-09-09T07:00:48;17.70;99.90
15615;DHT22;7907;51.368;6.730;2022-09-09T07:03:28;17.70;99.90
15615;DHT22;7907;51.368;6.730;2022-09-09T07:06:48;17.80;99.90
15615;DHT22;7907;51.368;6.730;2022-09-09T07:10:05;17.80;99.90
15615;DHT22;7907;51.368;6.730;2022-09-09T07:12:33;17.90;99.90
15615;DHT22;7907;51.368;6.730;2022-09-09T07:18:33;17.90;99.90
15615;DHT22;7907;51.368;6.730;2022-09-09T07:21:14;17.90;99.90
15615;DHT22;7907;51.368;6.730;2022-09-09T07:23:42;17.90;99.90
15615;DHT22;7907;51.368;6.730;2022-09-09T07:26:19;17.90;99.90
15615;DHT22;7907;51.368;6.730;2022-09-09T07:28:56;17.90;99.90
15615;DHT22;7907;51.368;6.730;2022-09-09T07:31:31;17.90;99.90
15615;DHT22;7907;51.368;6.730;2022-09-09T07:34:24;17.90;99.90
15615;DHT22;7907;51.368;6.730;2022-09-09T07:36:51;17.90;99.90
15615;DHT22;7907;51.368;6.730;2022-09-09T07:39:22;17.90;99.90
15615;DHT22;7907;51.368;6.730;2022-09-09T07:41:49;18.00;99.90
15615;DHT22;7907;51.368;6.730;2022-09-09T07:44:29;18.00;99.90
15615;DHT22;7907;51.368;6.730;2022-09-09T07:47:38;18.00;99.90
15615;DHT22;7907;51.368;6.730;2022-09-09T08:00:33;18.00;99.90
15615;DHT22;7907;51.368;6.730;2022-09-09T08:03:09;18.10;99.90
15615;DHT22;7907;51.368;6.730;2022-09-09T08:06:07;18.10;99.90
15615;DHT22;7907;51.368;6.730;2022-09-09T08:12:22;18.40;99.90
15615;DHT22;7907;51.368;6.730;2022-09-09T08:14:52;18.60;99.90
15615;DHT22;7907;51.368;6.730;2022-09-09T08:17:32;18.60;99.90
15615;DHT22;7907;51.368;6.730;2022-09-09T08:19:59;18.70;99.90
15615;DHT22;7907;51.368;6.730;2022-09-09T08:22:42;18.70;99.90
15615;DHT22;7907;51.368;6.730;2022-09-09T08:25:13;18.70;99.90
15615;DHT22;7907;51.368;6.730;2022-09-09T08:27:49;18.70;99.90
15615;DHT22;7907;51.368;6.730;2022-09-09T08:30:16;18.70;99.90
15615;DHT22;7907;51.368;6.730;2022-09-09T08:33:02;18.80;99.90
15615;DHT22;7907;51.368;6.730;2022-09-09T08:35:58;18.90;99.90
15615;DHT22;7907;51.368;6.730;2022-09-09T08:38:37;19.00;99.90
15615;DHT22;7907;51.368;6.730;2022-09-09T08:41:34;19.10;99.90
15615;DHT22;7907;51.368;6.730;2022-09-09T08:44:07;19.30;99.90
15615;DHT22;7907;51.368;6.730;2022-09-09T08:46:50;19.50;99.90
15615;DHT22;7907;51.368;6.730;2022-09-09T08:49:59;19.60;99.90
15615;DHT22;7907;51.368;6.730;2022-09-09T08:52:36;19.80;99.90
15615;DHT22;7907;51.368;6.730;2022-09-09T08:55:37;20.00;99.90
15615;DHT22;7907;51.368;6.730;2022-09-09T08:58:48;20.10;99.90
15615;DHT22;7907;51.368;6.730;2022-09-09T09:01:38;20.20;99.90
15615;DHT22;7907;51.368;6.730;2022-09-09T09:04:21;20.30;99.90
15615;DHT22;7907;51.368;6.730;2022-09-09T09:07:07;20.30;99.90
15615;DHT22;7907;51.368;6.730;2022-09-09T09:15:55;20.40;99.90
15615;DHT22;7907;51.368;6.730;2022-09-09T09:18:45;20.60;99.90
15615;DHT22;7907;51.368;6.730;2022-09-09T09:21:21;20.70;99.90
15615;DHT22;7907;51.368;6.730;2022-09-09T09:24:20;20.80;99.90
15615;DHT22;7907;51.368;6.730;2022-09-09T09:27:10;20.80;99.90
15615;DHT22;7907;51.368;6.730;2022-09-09T09:30:05;20.80;99.90
15615;DHT22;7907;51.368;6.730;2022-09-09T09:35:18;20.70;99.90
15615;DHT22;7907;51.368;6.730;2022-09-09T09:37:49;20.70;99.90
15615;DHT22;7907;51.368;6.730;2022-09-09T09:40:24;20.70;99.90
15615;DHT22;7907;51.368;6.730;2022-09-09T09:46:03;20.70;99.90
15615;DHT22;7907;51.368;6.730;2022-09-09T09:48:31;20.80;99.90
15615;DHT22;7907;51.368;6.730;2022-09-09T09:51:15;20.70;99.90
15615;DHT22;7907;51.368;6.730;2022-09-09T09:54:17;20.80;99.90
15615;DHT22;7907;51.368;6.730;2022-09-09T09:56:59;20.80;99.90
15615;DHT22;7907;51.368;6.730;2022-09-09T10:00:00;20.80;99.90
15615;DHT22;7907;51.368;6.730;2022-09-09T10:02:42;20.80;99.90
15615;DHT22;7907;51.368;6.730;2022-09-09T10:05:35;20.80;99.90
15615;DHT22;7907;51.368;6.730;2022-09-09T10:08:12;20.80;99.90
15615;DHT22;7907;51.368;6.730;2022-09-09T10:10:51;20.90;99.90
15615;DHT22;7907;51.368;6.730;2022-09-09T10:13:55;21.10;99.90
15615;DHT22;7907;51.368;6.730;2022-09-09T10:16:49;21.20;99.90
15615;DHT22;7907;51.368;6.730;2022-09-09T10:19:31;21.30;99.90
15615;DHT22;7907;51.368;6.730;2022-09-09T10:22:09;21.40;99.90
15615;DHT22;7907;51.368;6.730;2022-09-09T10:28:34;21.40;99.90
15615;DHT22;7907;51.368;6.730;2022-09-09T10:31:19;21.50;99.90
15615;DHT22;7907;51.368;6.730;2022-09-09T10:34:01;21.40;99.90
15615;DHT22;7907;51.368;6.730;2022-09-09T10:36:46;21.40;99.90
15615;DHT22;7907;51.368;6.730;2022-09-09T10:39:28;21.30;99.90
15615;DHT22;7907;51.368;6.730;2022-09-09T10:42:05;21.20;99.90
15615;DHT22;7907;51.368;6.730;2022-09-09T10:45:02;21.10;99.90
15615;DHT22;7907;51.368;6.730;2022-09-09T10:48:31;21.10;99.90
15615;DHT22;7907;51.368;6.730;2022-09-09T10:51:23;21.10;99.90
15615;DHT22;7907;51.368;6.730;2022-09-09T10:54:22;21.10;99.90
15615;DHT22;7907;51.368;6.730;2022-09-09T10:57:18;21.20;99.90
15615;DHT22;7907;51.368;6.730;2022-09-09T11:00:37;21.30;99.90
15615;DHT22;7907;51.368;6.730;2022-09-09T11:03:25;21.50;99.90
15615;DHT22;7907;51.368;6.730;2022-09-09T11:06:20;21.50;99.90
15615;DHT22;7907;51.368;6.730;2022-09-09T11:12:39;21.40;99.90
15615;DHT22;7907;51.368;6.730;2022-09-09T11:15:18;21.30;99.90
15615;DHT22;7907;51.368;6.730;2022-09-09T11:17:57;21.30;99.90
15615;DHT22;7907;51.368;6.730;2022-09-09T11:20:38;21.30;99.90
15615;DHT22;7907;51.368;6.730;2022-09-09T11:26:30;21.20;99.90
15615;DHT22;7907;51.368;6.730;2022-09-09T11:29:34;21.30;99.90
15615;DHT22;7907;51.368;6.730;2022-09-09T11:38:56;22.10;99.90
15615;DHT22;7907;51.368;6.730;2022-09-09T11:41:45;22.10;99.90
15615;DHT22;7907;51.368;6.730;2022-09-09T11:44:17;22.10;99.90
15615;DHT22;7907;51.368;6.730;2022-09-09T11:46:52;22.00;99.90
15615;DHT22;7907;51.368;6.730;2022-09-09T11:49:27;22.10;99.90
15615;DHT22;7907;51.368;6.730;2022-09-09T11:51:57;22.10;99.80
15615;DHT22;7907;51.368;6.730;2022-09-09T11:54:31;22.10;99.50
15615;DHT22;7907;51.368;6.730;2022-09-09T11:57:00;22.20;99.50
15615;DHT22;7907;51.368;6.730;2022-09-09T11:59:31;22.20;99.40
15615;DHT22;7907;51.368;6.730;2022-09-09T12:01:59;22.10;99.80
15615;DHT22;7907;51.368;6.730;2022-09-09T12:04:34;22.00;99.90
15615;DHT22;7907;51.368;6.730;2022-09-09T12:07:05;21.90;99.90
15615;DHT22;7907;51.368;6.730;2022-09-09T12:09:52;21.80;99.90
15615;DHT22;7907;51.368;6.730;2022-09-09T12:12:28;21.70;99.90
15615;DHT22;7907;51.368;6.730;2022-09-09T12:15:01;21.60;99.90
15615;DHT22;7907;51.368;6.730;2022-09-09T12:17:31;21.70;99.90
15615;DHT22;7907;51.368;6.730;2022-09-09T12:20:08;22.00;99.90
15615;DHT22;7907;51.368;6.730;2022-09-09T12:22:47;22.20;99.90
15615;DHT22;7907;51.368;6.730;2022-09-09T12:25:26;22.40;99.90
15615;DHT22;7907;51.368;6.730;2022-09-09T12:28:03;22.20;99.90
15615;DHT22;7907;51.368;6.730;2022-09-09T12:30:36;22.20;99.90
15615;DHT22;7907;51.368;6.730;2022-09-09T12:33:10;22.00;99.90
15615;DHT22;7907;51.368;6.730;2022-09-09T12:35:39;21.70;99.90
15615;DHT22;7907;51.368;6.730;2022-09-09T12:38:12;21.40;99.90
15615;DHT22;7907;51.368;6.730;2022-09-09T12:40:56;20.80;99.90
15615;DHT22;7907;51.368;6.730;2022-09-09T12:43:33;20.00;99.90
15615;DHT22;7907;51.368;6.730;2022-09-09T12:46:07;19.30;99.90
15615;DHT22;7907;51.368;6.730;2022-09-09T12:48:41;18.80;99.90
15615;DHT22;7907;51.368;6.730;2022-09-09T12:51:26;18.50;99.90
15615;DHT22;7907;51.368;6.730;2022-09-09T12:53:55;18.30;99.90
15615;DHT22;7907;51.368;6.730;2022-09-09T12:56:27;18.10;99.90
15615;DHT22;7907;51.368;6.730;2022-09-09T12:58:58;17.90;99.90
15615;DHT22;7907;51.368;6.730;2022-09-09T13:01:41;17.80;99.90
15615;DHT22;7907;51.368;6.730;2022-09-09T13:06:51;17.30;99.90
15615;DHT22;7907;51.368;6.730;2022-09-09T13:09:30;17.30;99.90
15615;DHT22;7907;51.368;6.730;2022-09-09T13:12:25;17.20;99.90
15615;DHT22;7907;51.368;6.730;2022-09-09T13:18:33;17.60;99.90
15615;DHT22;7907;51.368;6.730;2022-09-09T13:21:37;17.90;99.90
15615;DHT22;7907;51.368;6.730;2022-09-09T13:24:35;18.40;99.90
15615;DHT22;7907;51.368;6.730;2022-09-09T13:27:26;18.60;99.90
15615;DHT22;7907;51.368;6.730;2022-09-09T13:30:22;18.80;99.90
15615;DHT22;7907;51.368;6.730;2022-09-09T13:33:29;19.10;99.90
15615;DHT22;7907;51.368;6.730;2022-09-09T13:35:57;19.70;99.90
15615;DHT22;7907;51.368;6.730;2022-09-09T13:38:29;19.90;99.90
15615;DHT22;7907;51.368;6.730;2022-09-09T13:40:59;20.30;99.90
15615;DHT22;7907;51.368;6.730;2022-09-09T13:43:34;20.50;99.90
15615;DHT22;7907;51.368;6.730;2022-09-09T13:46:03;20.60;99.90
15615;DHT22;7907;51.368;6.730;2022-09-09T13:48:31;20.60;99.90
15615;DHT22;7907;51.368;6.730;2022-09-09T13:51:00;20.70;99.90
15615;DHT22;7907;51.368;6.730;2022-09-09T13:53:28;20.70;99.90
15615;DHT22;7907;51.368;6.730;2022-09-09T13:55:56;20.80;99.90
15615;DHT22;7907;51.368;6.730;2022-09-09T13:58:24;21.60;99.90
15615;DHT22;7907;51.368;6.730;2022-09-09T14:00:53;22.00;99.90
15615;DHT22;7907;51.368;6.730;2022-09-09T14:03:27;21.90;99.90
15615;DHT22;7907;51.368;6.730;2022-09-09T14:05:54;21.70;99.90
15615;DHT22;7907;51.368;6.730;2022-09-09T14:08:24;22.10;99.90
15615;DHT22;7907;51.368;6.730;2022-09-09T14:10:52;22.40;99.90
15615;DHT22;7907;51.368;6.730;2022-09-09T14:13:22;22.50;99.90
15615;DHT22;7907;51.368;6.730;2022-09-09T14:15:51;22.30;99.90
15615;DHT22;7907;51.368;6.730;2022-09-09T14:18:19;22.20;99.90
15615;DHT22;7907;51.368;6.730;2022-09-09T14:20:48;22.20;99.90
15615;DHT22;7907;51.368;6.730;2022-09-09T14:23:15;22.80;99.90
15615;DHT22;7907;51.368;6.730;2022-09-09T14:25:43;23.00;99.90
15615;DHT22;7907;51.368;6.730;2022-09-09T14:28:11;22.70;99.90
15615;DHT22;7907;51.368;6.730;2022-09-09T14:30:39;22.40;99.90
15615;DHT22;7907;51.368;6.730;2022-09-09T14:33:10;22.10;99.90
15615;DHT22;7907;51.368;6.730;2022-09-09T14:35:38;21.60;99.90
15615;DHT22;7907;51.368;6.730;2022-09-09T14:38:06;20.20;99.90
15615;DHT22;7907;51.368;6.730;2022-09-09T14:40:37;19.00;99.90
15615;DHT22;7907;51.368;6.730;2022-09-09T14:43:14;18.30;99.90
15615;DHT22;7907;51.368;6.730;2022-09-09T14:46:05;17.80;99.90
15615;DHT22;7907;51.368;6.730;2022-09-09T14:49:05;17.50;99.90
15615;DHT22;7907;51.368;6.730;2022-09-09T14:51:33;17.20;99.90
15615;DHT22;7907;51.368;6.730;2022-09-09T14:54:13;17.00;99.90
15615;DHT22;7907;51.368;6.730;2022-09-09T14:56:51;16.90;99.90
15615;DHT22;7907;51.368;6.730;2022-09-09T14:59:22;16.90;99.90
15615;DHT22;7907;51.368;6.730;2022-09-09T15:02:14;16.80;99.90
15615;DHT22;7907;51.368;6.730;2022-09-09T15:05:01;16.80;99.90
15615;DHT22;7907;51.368;6.730;2022-09-09T15:08:15;16.80;99.90
15615;DHT22;7907;51.368;6.730;2022-09-09T15:11:26;16.80;99.90
15615;DHT22;7907;51.368;6.730;2022-09-09T16:31:45;19.90;99.90
